Portada
METAR-TAF:

METAR-TAF

Aeroports :

Illa de Pasqua, Xile

latitud: 27-09S, longitud: 109-25W, altitud: 51 m

Observació

L'informe es va fer fa 57 minuts, a les 02:00 UTC
Vent 19 kt del Est/Sud-Est
Temperatura 20°C
Humitat 73%
Pressió 1022 hPa
Visibilitat 10 km o més
Cel ennuvolat a una alçada de 3000 ft

METAR: SCIP 190200Z 12019KT 9999 BKN030 20/15 Q1022 NOSIG

Hora: 20:57 (02:57 UTC)

Pronòstic

L'informe es va fer fa 4 hores i 37 minuts, a les 22:20 UTC
Pronòstic vàlid del 19 a les 00 UTC al 20 a les 00 UTC
Vent 19 kt del Est/Sud-Est
Visibilitat 10 km o més
Núvols disperses a una alçada de 2000 ft
Cel ennuvolat a una alçada de 4500 ft
Temporalment
l' 19 a les 00 UTC al 19 a les 11 UTC
Vent 19 kt del Est/Sud-Est amb ràfegues de 29 kt
Visibilitat: 5000 m
Núvols disperses a una alçada de 1500 ft
Cel ennuvolat a una alçada de 2500 ft
xàfecs de pluja,

TAF: SCIP 182220Z 1900/2000 12019KT 9999 SCT020 BKN045 TN18/1910Z TX22/1920Z TEMPO 1900/1911 12019G29KT 5000 -SHRA SCT015 BKN025

Observacions i pronòstics meteorològics de més de 4000 aeroports (METAR i TAF).

Les estacions disponibles són els punts grocs i vermells al mapa.

Posi el ratolí al punt desitjat per veure el nom de l'estació.

Feu clic per veure les observacions i els pronòstics meteorològics.

Per canviar el mapa: feu clic els botons verds amb una creu de color negre per apropar; al botó verd amb un guió per allunyar la imatge; o en les fletxes verdes per a mapes adjacents.


METAR-TAF: